createdAt,value
2018-06-21T00:00:59.176Z,53.75
2018-06-21T00:03:29.082Z,52.89
2018-06-21T00:05:58.771Z,52.49
2018-06-21T00:08:28.491Z,51.93
2018-06-21T00:10:58.109Z,50.70
2018-06-21T00:13:27.853Z,50.40
2018-06-21T00:15:57.558Z,51.64
2018-06-21T00:18:27.554Z,51.60
2018-06-21T00:20:57.413Z,50.82
2018-06-21T00:23:26.983Z,51.27
2018-06-21T00:25:56.538Z,51.36
2018-06-21T00:28:26.321Z,52.98
2018-06-21T00:30:56.120Z,53.22
2018-06-21T00:33:25.916Z,51.35
2018-06-21T00:35:55.638Z,50.64
2018-06-21T00:38:25.332Z,51.38
2018-06-21T00:40:55.119Z,50.77
2018-06-21T00:43:24.882Z,51.51
2018-06-21T00:45:54.565Z,53.63
2018-06-21T00:48:24.234Z,52.16
2018-06-21T00:50:53.997Z,51.11
2018-06-21T00:53:23.504Z,50.55
2018-06-21T00:56:03.770Z,51.13
2018-06-21T00:58:34.002Z,50.31
2018-06-21T01:01:03.691Z,50.99
2018-06-21T01:03:33.330Z,53.44
2018-06-21T01:06:03.001Z,55.53
2018-06-21T01:08:32.625Z,54.64
2018-06-21T01:11:02.430Z,55.58
2018-06-21T01:13:32.104Z,55.02
2018-06-21T01:16:01.932Z,53.70
2018-06-21T01:18:31.834Z,52.59
2018-06-21T01:21:01.494Z,53.30
2018-06-21T01:23:31.395Z,52.40
2018-06-21T01:26:01.102Z,53.27
2018-06-21T01:28:30.754Z,53.44
2018-06-21T01:31:00.485Z,53.76
2018-06-21T01:33:30.150Z,52.57
2018-06-21T01:35:59.985Z,52.01
2018-06-21T01:38:29.770Z,51.90
2018-06-21T01:40:59.648Z,52.78
2018-06-21T01:43:29.345Z,51.88
2018-06-21T01:45:59.068Z,51.79
2018-06-21T01:48:28.762Z,51.71
2018-06-21T01:50:58.520Z,53.56
2018-06-21T01:53:28.188Z,53.02
2018-06-21T01:55:57.933Z,52.44
2018-06-21T01:58:43.630Z,52.41
2018-06-21T02:01:13.326Z,51.88
2018-06-21T02:03:43.107Z,53.14
2018-06-21T02:06:12.809Z,52.93
2018-06-21T02:08:43.430Z,53.12
2018-06-21T02:11:13.506Z,53.24
2018-06-21T02:13:43.116Z,53.47
2018-06-21T02:16:12.803Z,53.21
2018-06-21T02:18:42.621Z,54.00
2018-06-21T02:21:12.413Z,53.29
2018-06-21T02:23:42.139Z,52.67
2018-06-21T02:26:11.841Z,53.03
2018-06-21T02:28:41.670Z,53.50
2018-06-21T02:31:11.328Z,52.73
2018-06-21T02:33:40.981Z,52.96
2018-06-21T02:36:10.691Z,55.21
2018-06-21T02:38:40.432Z,55.90
2018-06-21T02:41:10.229Z,54.19
2018-06-21T02:43:39.908Z,54.33
2018-06-21T02:46:09.697Z,56.36
2018-06-21T02:48:39.469Z,55.83
2018-06-21T02:51:09.250Z,56.64
2018-06-21T02:53:38.869Z,55.37
2018-06-21T02:56:08.708Z,54.99
2018-06-21T02:58:38.477Z,55.66
2018-06-21T03:01:08.353Z,55.09
2018-06-21T03:03:38.083Z,55.35
2018-06-21T03:06:07.913Z,55.24
2018-06-21T03:08:37.703Z,56.06
2018-06-21T03:11:07.433Z,56.58
2018-06-21T03:13:37.215Z,55.78
2018-06-21T03:16:07.076Z,57.54
2018-06-21T03:18:36.784Z,57.70
2018-06-21T03:21:06.730Z,56.68
2018-06-21T03:23:36.436Z,56.01
2018-06-21T03:26:06.317Z,57.82
2018-06-21T03:28:36.015Z,57.82
2018-06-21T03:31:05.710Z,58.28
2018-06-21T03:33:35.488Z,60.84
2018-06-21T03:36:05.348Z,58.66
2018-06-21T03:38:35.124Z,57.09
2018-06-21T03:41:04.853Z,60.45
2018-06-21T03:43:34.580Z,61.41
2018-06-21T03:46:04.350Z,62.07
2018-06-21T03:48:34.450Z,61.38
2018-06-21T03:51:04.261Z,58.13
2018-06-21T03:53:34.066Z,57.68
2018-06-21T03:56:03.868Z,57.26
2018-06-21T03:58:33.758Z,57.45
2018-06-21T04:01:03.482Z,57.09
2018-06-21T04:03:33.348Z,58.65
2018-06-21T04:06:03.013Z,59.13
2018-06-21T04:08:32.877Z,57.14
2018-06-21T04:11:02.668Z,57.21
2018-06-21T04:13:32.451Z,57.32
2018-06-21T04:16:02.193Z,58.35
2018-06-21T04:18:37.428Z,58.14
2018-06-21T04:21:08.972Z,56.40
2018-06-21T04:23:38.967Z,55.43
2018-06-21T04:26:08.698Z,57.08
2018-06-21T04:28:39.453Z,58.09
2018-06-21T04:31:09.219Z,57.07
2018-06-21T04:33:38.849Z,56.66
2018-06-21T04:36:08.513Z,57.81
2018-06-21T04:38:38.284Z,57.55
2018-06-21T04:41:08.022Z,58.58
2018-06-21T04:43:37.748Z,57.09
2018-06-21T04:46:07.539Z,57.24
2018-06-21T04:48:37.220Z,54.95
2018-06-21T04:51:07.121Z,56.33
2018-06-21T04:53:36.820Z,55.95
2018-06-21T04:56:06.580Z,57.05
2018-06-21T04:58:36.287Z,56.14
2018-06-21T05:01:06.120Z,55.11
2018-06-21T05:03:36.040Z,55.00
2018-06-21T05:06:05.915Z,55.24
2018-06-21T05:08:35.639Z,53.52
2018-06-21T05:11:05.389Z,52.69
2018-06-21T05:13:35.264Z,54.35
2018-06-21T05:16:04.912Z,52.06
2018-06-21T05:18:34.747Z,53.16
2018-06-21T05:21:04.439Z,52.79
2018-06-21T05:23:34.153Z,51.67
2018-06-21T05:26:03.787Z,50.99
2018-06-21T05:28:33.609Z,50.66
2018-06-21T05:31:03.295Z,52.16
2018-06-21T05:33:33.354Z,52.29
2018-06-21T05:36:03.079Z,50.20
2018-06-21T05:38:32.692Z,51.79
2018-06-21T05:41:02.474Z,50.46
2018-06-21T05:43:32.883Z,49.92
2018-06-21T05:46:02.530Z,50.95
2018-06-21T05:48:32.236Z,54.12
2018-06-21T05:51:01.884Z,57.96
2018-06-21T05:53:31.738Z,57.03
2018-06-21T05:56:01.843Z,57.30
2018-06-21T05:58:32.117Z,57.93
2018-06-21T06:01:01.950Z,57.04
2018-06-21T06:03:31.587Z,56.20
2018-06-21T06:06:01.360Z,54.92
2018-06-21T06:08:31.258Z,55.25
2018-06-21T06:11:01.088Z,56.09
2018-06-21T06:13:30.844Z,53.91
2018-06-21T06:16:00.543Z,53.10
2018-06-21T06:18:30.304Z,53.79
2018-06-21T06:21:00.089Z,53.25
2018-06-21T06:23:29.828Z,53.83
2018-06-21T06:26:00.256Z,53.96
2018-06-21T06:28:30.640Z,52.08
2018-06-21T06:31:00.801Z,51.07
2018-06-21T06:33:31.455Z,49.68
2018-06-21T06:36:01.778Z,49.09
2018-06-21T06:38:32.132Z,49.60
2018-06-21T06:41:02.339Z,48.46
2018-06-21T06:43:32.818Z,48.87
2018-06-21T06:46:03.063Z,49.64
2018-06-21T06:48:34.375Z,47.34
2018-06-21T06:51:04.545Z,46.62
2018-06-21T06:53:35.131Z,48.12
2018-06-21T06:56:05.450Z,49.56
2018-06-21T06:58:35.717Z,48.75
2018-06-21T07:01:05.432Z,47.88
2018-06-21T07:03:35.151Z,47.04
2018-06-21T07:06:05.048Z,45.80
2018-06-21T07:08:34.835Z,45.01
2018-06-21T07:11:04.601Z,43.10
2018-06-21T07:13:34.195Z,41.27
2018-06-21T07:16:03.963Z,42.40
2018-06-21T07:18:33.737Z,41.63
2018-06-21T07:21:03.516Z,40.86
2018-06-21T07:23:33.345Z,41.47
2018-06-21T07:26:03.113Z,42.02
2018-06-21T07:28:32.895Z,41.84
2018-06-21T07:31:02.473Z,41.47
2018-06-21T07:33:32.194Z,39.79
2018-06-21T07:36:02.741Z,41.95
2018-06-21T07:38:32.871Z,40.69
2018-06-21T07:41:03.198Z,40.33
2018-06-21T07:43:33.902Z,38.68
2018-06-21T07:46:03.657Z,37.83
2018-06-21T07:48:34.579Z,38.03
2018-06-21T07:51:04.311Z,36.97
2018-06-21T07:53:34.151Z,37.19
2018-06-21T07:56:04.890Z,35.12
2018-06-21T07:58:36.173Z,36.27
2018-06-21T08:01:06.680Z,34.99
2018-06-21T08:03:37.125Z,34.42
2018-06-21T08:06:07.655Z,35.24
2018-06-21T08:08:38.328Z,35.16
2018-06-21T08:11:08.841Z,33.03
2018-06-21T08:13:39.547Z,34.88
2018-06-21T08:16:10.311Z,33.77
2018-06-21T08:18:41.430Z,33.83
2018-06-21T08:21:11.860Z,34.16
2018-06-21T08:23:42.115Z,32.89
2018-06-21T08:26:12.662Z,32.56
2018-06-21T08:28:43.703Z,33.16
2018-06-21T08:31:14.070Z,32.77
2018-06-21T08:33:44.372Z,31.57
2018-06-21T08:36:14.698Z,30.60
2018-06-21T08:38:45.835Z,29.88
2018-06-21T08:41:16.040Z,29.99
2018-06-21T08:43:46.333Z,29.03
2018-06-21T08:46:16.661Z,30.36
2018-06-21T08:48:46.792Z,30.77
2018-06-21T08:51:16.440Z,29.90
2018-06-21T08:53:46.299Z,29.64
2018-06-21T08:56:16.168Z,29.21
2018-06-21T08:58:45.796Z,27.77
2018-06-21T09:01:15.654Z,26.66
2018-06-21T09:03:45.605Z,27.82
2018-06-21T09:06:15.730Z,27.11
2018-06-21T09:08:45.567Z,25.50
2018-06-21T09:11:15.351Z,24.46
2018-06-21T09:13:45.254Z,24.83
2018-06-21T09:16:15.110Z,24.89
2018-06-21T09:18:44.980Z,23.18
2018-06-21T09:21:14.771Z,26.28
2018-06-21T09:23:44.593Z,23.77
2018-06-21T09:26:14.344Z,24.25
2018-06-21T09:28:44.145Z,22.89
2018-06-21T09:31:14.057Z,23.44
2018-06-21T09:33:43.828Z,23.04
2018-06-21T09:36:13.692Z,21.25
2018-06-21T09:38:48.377Z,23.79
2018-06-21T09:41:23.237Z,22.65
2018-06-21T09:44:03.822Z,22.79
2018-06-21T09:46:34.411Z,22.90
2018-06-21T09:49:03.689Z,20.92
2018-06-21T09:51:33.407Z,20.81
2018-06-21T09:54:03.185Z,22.27
2018-06-21T09:56:32.889Z,19.95
2018-06-21T09:59:02.551Z,19.85
2018-06-21T10:01:32.209Z,20.40
2018-06-21T10:04:01.951Z,20.52
2018-06-21T10:06:31.732Z,20.60
2018-06-21T10:09:01.555Z,20.03
2018-06-21T10:11:31.451Z,19.93
2018-06-21T10:14:01.215Z,19.94
2018-06-21T10:16:30.946Z,18.78
2018-06-21T10:19:00.831Z,17.44
2018-06-21T10:21:30.603Z,17.44
2018-06-21T10:24:00.442Z,17.27
2018-06-21T10:26:30.123Z,18.12
2018-06-21T10:28:59.951Z,17.65
2018-06-21T10:31:29.726Z,19.38
2018-06-21T10:33:59.482Z,18.96
2018-06-21T10:36:29.268Z,19.92
2018-06-21T10:38:59.046Z,18.83
2018-06-21T10:41:28.877Z,18.67
2018-06-21T10:43:58.716Z,18.38
2018-06-21T10:46:28.469Z,17.17
2018-06-21T10:48:58.122Z,18.53
2018-06-21T10:51:27.889Z,18.06
2018-06-21T10:53:57.699Z,18.16
2018-06-21T10:56:27.418Z,19.14
2018-06-21T10:58:57.092Z,19.32
2018-06-21T11:01:26.982Z,18.49
2018-06-21T11:03:56.742Z,18.86
2018-06-21T11:06:26.832Z,18.56
2018-06-21T11:08:56.684Z,18.35
2018-06-21T11:11:26.485Z,18.44
2018-06-21T11:13:56.217Z,20.46
2018-06-21T11:16:26.117Z,19.76
2018-06-21T11:18:55.941Z,20.17
2018-06-21T11:21:25.717Z,20.35
2018-06-21T11:23:55.463Z,19.81
2018-06-21T11:26:25.170Z,19.36
2018-06-21T11:28:54.950Z,19.83
2018-06-21T11:31:24.832Z,20.07
2018-06-21T11:33:54.501Z,19.35
2018-06-21T11:36:24.268Z,19.26
2018-06-21T11:38:53.945Z,19.70
2018-06-21T11:41:23.769Z,18.58
2018-06-21T11:43:53.580Z,19.86
2018-06-21T11:46:23.378Z,19.96
2018-06-21T11:48:53.151Z,20.45
2018-06-21T11:51:22.894Z,18.35
2018-06-21T11:53:52.663Z,20.64
2018-06-21T11:56:22.450Z,20.90
2018-06-21T11:58:52.284Z,20.36
2018-06-21T12:01:21.911Z,20.66
2018-06-21T12:03:51.812Z,20.51
2018-06-21T12:06:21.598Z,21.25
2018-06-21T12:08:51.347Z,21.21
2018-06-21T12:11:21.227Z,21.39
2018-06-21T12:13:51.123Z,21.81
2018-06-21T12:16:21.363Z,23.02
2018-06-21T12:18:51.028Z,22.44
2018-06-21T12:21:20.856Z,21.69
2018-06-21T12:23:50.593Z,21.77
2018-06-21T12:26:20.523Z,21.73
2018-06-21T12:28:50.308Z,19.55
2018-06-21T12:31:20.183Z,18.80
2018-06-21T12:33:50.725Z,20.68
2018-06-21T12:36:20.347Z,21.11
2018-06-21T12:38:50.076Z,21.37
2018-06-21T12:41:19.764Z,22.22
2018-06-21T12:43:49.491Z,21.83
2018-06-21T12:46:19.190Z,21.94
2018-06-21T12:48:48.797Z,21.64
2018-06-21T12:51:18.615Z,21.52
2018-06-21T12:53:48.403Z,21.70
2018-06-21T12:56:18.253Z,20.50
2018-06-21T12:58:48.094Z,23.26
2018-06-21T13:01:17.687Z,22.18
2018-06-21T13:03:47.588Z,22.78
2018-06-21T13:06:17.408Z,24.49
2018-06-21T13:08:57.694Z,24.32
2018-06-21T13:11:37.912Z,24.25
2018-06-21T13:14:25.039Z,23.94
2018-06-21T13:16:54.959Z,25.54
2018-06-21T13:19:24.736Z,25.06
2018-06-21T13:21:54.487Z,26.16
2018-06-21T13:24:24.264Z,25.89
2018-06-21T13:26:53.999Z,26.98
2018-06-21T13:29:23.844Z,27.63
2018-06-21T13:31:53.670Z,28.91
2018-06-21T13:34:23.358Z,28.94
2018-06-21T13:36:53.524Z,28.16
2018-06-21T13:39:23.236Z,27.92
2018-06-21T13:41:53.017Z,28.05
2018-06-21T13:44:22.697Z,29.14
2018-06-21T13:48:21.348Z,29.88
2018-06-21T13:50:51.169Z,28.08
2018-06-21T13:53:20.911Z,29.75
2018-06-21T13:55:50.623Z,29.33
2018-06-21T13:58:20.398Z,29.29
2018-06-21T14:00:50.135Z,29.30
2018-06-21T14:03:19.954Z,29.35
2018-06-21T14:05:49.855Z,29.08
2018-06-21T14:08:19.843Z,29.35
2018-06-21T14:10:49.673Z,29.54
2018-06-21T14:13:19.373Z,31.18
2018-06-21T14:15:49.055Z,33.04
2018-06-21T14:18:18.791Z,32.92
2018-06-21T14:20:48.592Z,32.04
2018-06-21T14:23:18.309Z,32.51
2018-06-21T14:25:48.143Z,33.87
2018-06-21T14:28:17.863Z,34.42
2018-06-21T14:30:47.628Z,33.46
2018-06-21T14:33:17.421Z,33.09
2018-06-21T14:35:47.193Z,31.61
2018-06-21T14:38:17.087Z,30.79
2018-06-21T14:40:46.730Z,30.34
2018-06-21T14:43:16.614Z,29.14
2018-06-21T14:45:46.259Z,28.89
2018-06-21T14:48:15.947Z,29.70
2018-06-21T14:50:45.630Z,29.97
2018-06-21T14:53:15.438Z,30.95
2018-06-21T14:55:45.368Z,30.22
2018-06-21T14:58:15.222Z,29.55
2018-06-21T15:00:44.850Z,30.25
2018-06-21T15:03:14.700Z,31.60
2018-06-21T15:05:44.532Z,30.69
2018-06-21T15:08:14.306Z,29.84
2018-06-21T15:10:44.061Z,30.44
2018-06-21T15:13:14.202Z,31.01
2018-06-21T15:15:43.920Z,31.33
2018-06-21T15:18:13.670Z,31.53
2018-06-21T15:20:43.519Z,32.22
2018-06-21T15:23:13.242Z,33.08
2018-06-21T15:25:43.175Z,32.04
2018-06-21T15:28:13.090Z,31.86
2018-06-21T15:30:42.754Z,31.37
2018-06-21T15:33:12.491Z,32.38
2018-06-21T15:35:42.220Z,31.99
2018-06-21T15:38:12.019Z,31.98
2018-06-21T15:40:42.198Z,31.53
2018-06-21T15:43:11.977Z,32.27
2018-06-21T15:45:41.716Z,31.93
2018-06-21T15:48:11.483Z,32.79
2018-06-21T15:50:41.396Z,33.11
2018-06-21T15:53:11.116Z,33.12
2018-06-21T15:55:40.872Z,32.70
2018-06-21T15:58:10.677Z,33.91
2018-06-21T16:00:40.347Z,33.22
2018-06-21T16:03:10.129Z,33.41
2018-06-21T16:05:39.921Z,33.69
2018-06-21T16:08:09.644Z,33.45
2018-06-21T16:10:39.324Z,34.36
2018-06-21T16:13:09.027Z,32.75
2018-06-21T16:15:38.793Z,32.69
2018-06-21T16:18:08.677Z,32.74
2018-06-21T16:20:38.455Z,32.30
2018-06-21T16:23:08.164Z,31.94
2018-06-21T16:25:37.895Z,32.25
2018-06-21T16:28:07.796Z,34.14
2018-06-21T16:30:38.235Z,34.69
2018-06-21T16:33:08.252Z,36.48
2018-06-21T16:35:38.004Z,37.70
2018-06-21T16:38:07.796Z,38.09
2018-06-21T16:40:37.507Z,36.97
2018-06-21T16:43:07.519Z,37.21
2018-06-21T16:45:37.217Z,37.23
2018-06-21T16:48:07.034Z,41.63
2018-06-21T16:50:36.688Z,42.21
2018-06-21T16:53:06.548Z,42.53
2018-06-21T16:55:36.327Z,42.70
2018-06-21T16:58:06.101Z,43.06
2018-06-21T17:00:35.811Z,42.17
2018-06-21T17:03:05.488Z,41.54
2018-06-21T17:05:35.126Z,41.09
2018-06-21T17:08:04.884Z,40.77
2018-06-21T17:10:34.641Z,41.75
2018-06-21T17:13:04.461Z,41.67
2018-06-21T17:15:34.300Z,41.51
2018-06-21T17:18:04.004Z,41.34
2018-06-21T17:20:33.818Z,41.35
2018-06-21T17:23:03.603Z,41.25
2018-06-21T17:25:33.415Z,43.96
2018-06-21T17:28:03.238Z,43.12
2018-06-21T17:30:33.060Z,41.41
2018-06-21T17:33:02.777Z,41.53
2018-06-21T17:35:32.503Z,41.44
2018-06-21T17:38:02.250Z,41.35
2018-06-21T17:40:32.362Z,41.18
2018-06-21T17:43:02.234Z,40.17
2018-06-21T17:45:32.799Z,40.12
2018-06-21T17:48:02.506Z,41.14
2018-06-21T17:50:32.235Z,41.58
2018-06-21T17:53:01.991Z,41.74
2018-06-21T17:55:31.736Z,41.33
2018-06-21T17:58:01.457Z,41.02
2018-06-21T18:00:31.285Z,40.72
2018-06-21T18:03:01.035Z,41.23
2018-06-21T18:05:30.811Z,41.70
2018-06-21T18:08:00.456Z,42.11
2018-06-21T18:10:30.181Z,41.93
2018-06-21T18:12:59.978Z,43.12
2018-06-21T18:15:29.679Z,42.52
2018-06-21T18:17:59.288Z,42.78
2018-06-21T18:20:29.063Z,42.92
2018-06-21T18:22:58.713Z,43.78
2018-06-21T18:25:28.442Z,42.51
2018-06-21T18:27:59.193Z,42.42
2018-06-21T18:30:28.949Z,43.60
2018-06-21T18:32:58.654Z,44.96
2018-06-21T18:35:28.502Z,45.86
2018-06-21T18:37:58.300Z,44.95
2018-06-21T18:40:28.153Z,44.21
2018-06-21T18:42:57.904Z,43.82
2018-06-21T18:45:27.731Z,42.86
2018-06-21T18:47:57.711Z,42.83
2018-06-21T18:50:27.432Z,42.65
2018-06-21T18:52:57.583Z,42.39
2018-06-21T18:55:27.361Z,42.01
2018-06-21T18:57:57.612Z,42.07
2018-06-21T19:00:27.216Z,42.43
2018-06-21T19:02:56.984Z,43.06
2018-06-21T19:05:27.399Z,42.78
2018-06-21T19:08:02.596Z,43.11
2018-06-21T19:10:38.028Z,43.65
2018-06-21T19:13:07.752Z,44.03
2018-06-21T19:15:38.466Z,43.48
2018-06-21T19:18:08.105Z,44.01
2018-06-21T19:20:37.929Z,44.84
2018-06-21T19:23:07.812Z,46.00
2018-06-21T19:25:37.557Z,46.89
2018-06-21T19:28:07.331Z,45.60
2018-06-21T19:30:37.008Z,45.46
2018-06-21T19:33:07.157Z,44.90
2018-06-21T19:35:37.614Z,44.96
2018-06-21T19:38:08.138Z,45.46
2018-06-21T19:40:38.755Z,44.91
2018-06-21T19:43:09.621Z,45.57
2018-06-21T19:45:40.658Z,45.52
2018-06-21T19:48:10.664Z,45.85
2018-06-21T19:50:40.476Z,46.12
2018-06-21T19:53:10.229Z,47.79
2018-06-21T19:55:40.784Z,46.94
2018-06-21T19:58:10.558Z,46.89
2018-06-21T20:00:40.683Z,47.37
2018-06-21T20:03:10.916Z,47.01
2018-06-21T20:05:40.973Z,48.03
2018-06-21T20:08:10.789Z,48.98
2018-06-21T20:10:40.484Z,50.55
2018-06-21T20:13:10.277Z,49.69
2018-06-21T20:15:51.984Z,49.36
2018-06-21T20:18:22.665Z,48.27
2018-06-21T20:20:52.448Z,48.86
2018-06-21T20:23:23.071Z,48.92
2018-06-21T20:25:52.796Z,47.88
2018-06-21T20:28:22.584Z,48.03
2018-06-21T20:30:52.204Z,47.94
2018-06-21T20:33:21.848Z,48.56
2018-06-21T20:35:51.586Z,47.95
2018-06-21T20:38:21.272Z,47.27
2018-06-21T20:40:50.951Z,48.97
2018-06-21T20:43:20.804Z,48.81
2018-06-21T20:45:50.463Z,48.70
2018-06-21T20:48:20.335Z,48.64
2018-06-21T20:50:50.209Z,48.61
2018-06-21T20:53:19.980Z,48.94
2018-06-21T20:55:49.685Z,49.14
2018-06-21T20:58:19.440Z,48.40
2018-06-21T21:00:49.093Z,48.59
2018-06-21T21:03:18.779Z,48.71
2018-06-21T21:05:48.471Z,49.34
2018-06-21T21:08:18.282Z,49.58
2018-06-21T21:10:47.977Z,50.51
2018-06-21T21:13:17.733Z,49.79
2018-06-21T21:15:47.491Z,49.84
2018-06-21T21:18:17.285Z,51.49
2018-06-21T21:20:47.120Z,54.00
2018-06-21T21:23:17.005Z,52.88
2018-06-21T21:25:46.734Z,51.97
2018-06-21T21:28:16.415Z,51.77
2018-06-21T21:30:46.020Z,51.68
2018-06-21T21:33:15.796Z,50.96
2018-06-21T21:35:45.512Z,50.45
2018-06-21T21:38:15.343Z,50.22
2018-06-21T21:40:45.104Z,49.80
2018-06-21T21:43:14.791Z,50.17
2018-06-21T21:45:44.460Z,49.86
2018-06-21T21:48:14.177Z,51.31
2018-06-21T21:50:44.148Z,50.90
2018-06-21T21:53:13.926Z,51.37
2018-06-21T21:55:43.679Z,50.99
2018-06-21T21:58:13.432Z,50.99
2018-06-21T22:00:46.927Z,50.33
2018-06-21T22:03:16.629Z,50.23
2018-06-21T22:05:47.229Z,49.66
2018-06-21T22:08:17.044Z,49.80
2018-06-21T22:10:47.665Z,51.60
2018-06-21T22:13:17.741Z,50.20
2018-06-21T22:15:48.341Z,50.76
2018-06-21T22:18:18.104Z,52.31
2018-06-21T22:20:47.879Z,51.23
2018-06-21T22:23:17.648Z,52.23
2018-06-21T22:25:47.390Z,53.13
2018-06-21T22:28:17.155Z,52.46
2018-06-21T22:30:46.768Z,50.77
2018-06-21T22:33:16.459Z,51.88
2018-06-21T22:35:46.152Z,51.54
2018-06-21T22:38:15.744Z,51.60
2018-06-21T22:40:45.415Z,51.58
2018-06-21T22:43:15.074Z,51.92
2018-06-21T22:45:44.891Z,51.70
2018-06-21T22:48:14.656Z,54.12
2018-06-21T22:50:44.237Z,53.42
2018-06-21T22:53:14.097Z,53.74
2018-06-21T22:55:43.864Z,53.36
2018-06-21T22:58:13.625Z,52.90
2018-06-21T23:00:43.344Z,52.79
2018-06-21T23:03:13.114Z,52.26
2018-06-21T23:05:42.935Z,52.29
2018-06-21T23:08:12.697Z,53.81
2018-06-21T23:10:42.461Z,53.19
2018-06-21T23:13:12.113Z,52.51
2018-06-21T23:15:41.803Z,53.18
2018-06-21T23:18:11.616Z,53.16
2018-06-21T23:20:41.367Z,53.41
2018-06-21T23:23:10.989Z,52.71
2018-06-21T23:25:40.641Z,53.80
2018-06-21T23:28:10.289Z,54.31
2018-06-21T23:30:40.072Z,53.37
2018-06-21T23:33:09.700Z,53.32
2018-06-21T23:35:39.456Z,52.55
2018-06-21T23:38:09.149Z,52.98
2018-06-21T23:40:38.765Z,53.35
2018-06-21T23:43:09.305Z,53.98
2018-06-21T23:45:39.740Z,53.59
2018-06-21T23:48:10.416Z,53.41
2018-06-21T23:50:41.016Z,53.16
2018-06-21T23:53:11.492Z,54.46
2018-06-21T23:55:42.379Z,54.38
2018-06-21T23:58:12.112Z,53.94
